createdAt,value
2022-12-28T00:00:46.866Z,54.65
2022-12-28T00:02:48.255Z,54.31
2022-12-28T00:04:49.629Z,55.36
2022-12-28T00:06:51.596Z,54.52
2022-12-28T00:08:52.927Z,54.64
2022-12-28T00:11:08.210Z,55.00
2022-12-28T00:13:11.743Z,54.99
2022-12-28T00:15:13.070Z,54.70
2022-12-28T00:17:14.359Z,54.73
2022-12-28T00:19:15.655Z,55.46
2022-12-28T00:21:16.991Z,45.61
2022-12-28T00:23:18.279Z,48.40
2022-12-28T00:25:19.581Z,50.02
2022-12-28T00:27:20.904Z,49.76
2022-12-28T00:29:22.200Z,50.33
2022-12-28T00:31:23.676Z,50.75
2022-12-28T00:33:25.033Z,51.52
2022-12-28T00:35:26.342Z,51.70
2022-12-28T00:37:27.733Z,51.93
2022-12-28T00:39:29.044Z,52.01
2022-12-28T00:41:30.354Z,52.11
2022-12-28T00:43:31.819Z,52.46
2022-12-28T00:45:33.183Z,52.55
2022-12-28T00:47:34.511Z,52.66
2022-12-28T00:49:35.896Z,52.67
2022-12-28T00:51:37.257Z,52.51
2022-12-28T00:53:38.588Z,52.87
2022-12-28T00:55:39.952Z,52.84
2022-12-28T00:57:41.300Z,52.82
2022-12-28T00:59:42.600Z,53.24
2022-12-28T01:01:44.055Z,53.79
2022-12-28T01:03:45.502Z,53.44
2022-12-28T01:05:46.816Z,53.39
2022-12-28T01:07:48.159Z,54.08
2022-12-28T01:09:49.452Z,53.46
2022-12-28T01:11:50.764Z,53.79
2022-12-28T01:13:52.125Z,53.65
2022-12-28T01:15:53.450Z,54.14
2022-12-28T01:17:54.799Z,54.58
2022-12-28T01:19:56.134Z,54.83
2022-12-28T01:21:58.003Z,55.17
2022-12-28T01:23:59.520Z,55.56
2022-12-28T01:26:00.914Z,55.15
2022-12-28T01:28:02.380Z,55.58
2022-12-28T01:30:03.686Z,55.80
2022-12-28T01:32:05.055Z,55.64
2022-12-28T01:34:06.382Z,56.08
2022-12-28T01:36:08.397Z,56.65
2022-12-28T01:38:09.690Z,56.28
2022-12-28T01:40:11.143Z,56.54
2022-12-28T01:42:12.439Z,56.78
2022-12-28T01:44:13.889Z,57.74
2022-12-28T01:46:15.359Z,57.92
2022-12-28T01:48:16.909Z,58.30
2022-12-28T01:50:18.291Z,57.78
2022-12-28T01:52:19.844Z,58.30
2022-12-28T01:54:21.191Z,57.96
2022-12-28T01:56:22.532Z,57.99
2022-12-28T01:58:23.841Z,58.35
2022-12-28T02:00:26.863Z,58.19
2022-12-28T02:02:28.333Z,57.97
2022-12-28T02:04:29.794Z,57.99
2022-12-28T02:06:31.136Z,57.68
2022-12-28T02:08:32.505Z,58.18
2022-12-28T02:10:41.569Z,58.18
2022-12-28T02:12:46.749Z,58.08
2022-12-28T02:14:48.120Z,57.91
2022-12-28T02:16:49.526Z,57.07
2022-12-28T02:18:50.952Z,56.93
2022-12-28T02:20:52.253Z,57.24
2022-12-28T02:22:53.563Z,57.10
2022-12-28T02:25:13.060Z,56.88
2022-12-28T02:27:14.864Z,57.11
2022-12-28T02:29:16.218Z,58.24
2022-12-28T02:31:17.573Z,57.03
2022-12-28T02:33:19.022Z,57.15
2022-12-28T02:35:20.326Z,56.88
2022-12-28T02:37:21.617Z,56.92
2022-12-28T02:39:23.603Z,57.19
2022-12-28T02:41:24.971Z,57.40
2022-12-28T02:43:26.376Z,57.59
2022-12-28T02:45:46.628Z,57.64
2022-12-28T02:48:06.460Z,57.54
2022-12-28T02:50:07.827Z,58.01
2022-12-28T02:52:09.208Z,57.71
2022-12-28T02:54:10.529Z,57.77
2022-12-28T02:56:12.078Z,58.20
2022-12-28T02:58:13.424Z,58.44
2022-12-28T03:00:14.727Z,58.46
2022-12-28T03:02:16.217Z,59.34
2022-12-28T03:04:17.683Z,58.98
2022-12-28T03:06:37.717Z,59.17
2022-12-28T03:08:39.070Z,59.36
2022-12-28T03:10:40.387Z,59.91
2022-12-28T03:12:41.778Z,59.63
2022-12-28T03:14:43.116Z,60.23
2022-12-28T03:17:03.042Z,60.47
2022-12-28T03:19:22.990Z,61.06
2022-12-28T03:21:43.036Z,61.14
2022-12-28T03:24:02.880Z,61.54
2022-12-28T03:26:22.832Z,61.31
2022-12-28T03:28:42.598Z,61.03
2022-12-28T03:31:02.411Z,61.09
2022-12-28T03:33:03.750Z,60.42
2022-12-28T03:35:05.054Z,60.23
2022-12-28T03:37:06.354Z,60.11
2022-12-28T03:39:07.680Z,60.33
2022-12-28T03:41:09.066Z,59.67
2022-12-28T03:43:29.157Z,59.86
2022-12-28T03:45:45.948Z,59.64
2022-12-28T03:47:48.631Z,59.49
2022-12-28T03:49:50.069Z,59.42
2022-12-28T03:51:51.412Z,59.27
2022-12-28T03:53:52.742Z,58.99
2022-12-28T03:55:54.039Z,58.92
2022-12-28T03:57:55.374Z,59.13
2022-12-28T03:59:56.715Z,58.89
2022-12-28T04:01:58.166Z,58.92
2022-12-28T04:03:59.532Z,58.94
2022-12-28T04:06:00.874Z,58.78
2022-12-28T04:08:02.170Z,58.92
2022-12-28T04:10:03.518Z,58.84
2022-12-28T04:12:04.816Z,59.21
2022-12-28T04:14:10.725Z,59.57
2022-12-28T04:16:12.645Z,59.29
2022-12-28T04:18:13.961Z,59.01
2022-12-28T04:20:15.253Z,59.63
2022-12-28T04:22:16.652Z,59.36
2022-12-28T04:24:17.942Z,59.31
2022-12-28T04:26:19.254Z,59.37
2022-12-28T04:28:20.590Z,59.81
2022-12-28T04:30:21.927Z,59.56
2022-12-28T04:32:23.291Z,59.73
2022-12-28T04:34:24.583Z,59.60
2022-12-28T04:36:25.996Z,59.69
2022-12-28T04:38:27.319Z,60.11
2022-12-28T04:40:28.653Z,59.95
2022-12-28T04:42:29.992Z,60.04
2022-12-28T04:44:32.473Z,60.44
2022-12-28T04:46:33.825Z,60.48
2022-12-28T04:48:35.210Z,60.52
2022-12-28T04:50:36.523Z,60.43
2022-12-28T04:52:37.855Z,60.10
2022-12-28T04:54:39.188Z,60.72
2022-12-28T04:56:40.479Z,60.57
2022-12-28T04:58:41.794Z,60.82
2022-12-28T05:00:43.131Z,60.47
2022-12-28T05:02:46.463Z,60.86
2022-12-28T05:04:47.904Z,59.90
2022-12-28T05:06:49.250Z,59.64
2022-12-28T05:08:50.622Z,60.35
2022-12-28T05:10:51.921Z,59.92
2022-12-28T05:12:53.214Z,59.99
2022-12-28T05:14:54.547Z,60.22
2022-12-28T05:16:55.852Z,60.68
2022-12-28T05:18:57.516Z,60.41
2022-12-28T05:20:58.879Z,60.18
2022-12-28T05:23:00.178Z,60.16
2022-12-28T05:25:01.475Z,60.20
2022-12-28T05:27:02.970Z,60.41
2022-12-28T05:29:04.260Z,60.20
2022-12-28T05:31:05.614Z,60.15
2022-12-28T05:33:06.939Z,59.48
2022-12-28T05:35:08.278Z,59.43
2022-12-28T05:37:09.614Z,59.40
2022-12-28T05:39:11.077Z,59.21
2022-12-28T05:41:12.428Z,59.32
2022-12-28T05:43:13.748Z,59.09
2022-12-28T05:45:15.080Z,59.51
2022-12-28T05:47:16.402Z,59.63
2022-12-28T05:49:18.107Z,59.67
2022-12-28T05:51:19.432Z,59.81
2022-12-28T05:53:20.724Z,59.50
2022-12-28T05:55:22.077Z,59.58
2022-12-28T05:57:23.367Z,59.93
2022-12-28T05:59:24.659Z,60.20
2022-12-28T06:01:26.074Z,59.91
2022-12-28T06:03:27.570Z,59.88
2022-12-28T06:05:28.998Z,59.90
2022-12-28T06:07:30.307Z,59.54
2022-12-28T06:09:32.262Z,59.65
2022-12-28T06:11:33.567Z,59.82
2022-12-28T06:13:34.916Z,60.19
2022-12-28T06:15:36.206Z,60.57
2022-12-28T06:17:37.986Z,59.98
2022-12-28T06:19:39.287Z,60.01
2022-12-28T06:21:40.655Z,60.75
2022-12-28T06:23:41.955Z,60.77
2022-12-28T06:25:43.251Z,60.78
2022-12-28T06:27:44.588Z,60.62
2022-12-28T06:29:45.893Z,60.43
2022-12-28T06:31:48.021Z,60.97
2022-12-28T06:33:49.439Z,60.53
2022-12-28T06:35:50.789Z,60.56
2022-12-28T06:37:52.123Z,60.44
2022-12-28T06:39:53.486Z,60.24
2022-12-28T06:41:54.787Z,60.35
2022-12-28T06:43:56.128Z,60.38
2022-12-28T06:45:57.483Z,60.88
2022-12-28T06:47:58.831Z,60.73
2022-12-28T06:50:00.222Z,60.73
2022-12-28T06:52:01.530Z,61.30
2022-12-28T06:54:02.861Z,60.77
2022-12-28T06:56:04.235Z,60.45
2022-12-28T06:58:05.571Z,60.56
2022-12-28T07:00:07.059Z,60.03
2022-12-28T07:02:08.604Z,60.57
2022-12-28T07:04:10.014Z,60.67
2022-12-28T07:06:11.363Z,60.53
2022-12-28T07:08:13.053Z,60.11
2022-12-28T07:10:14.460Z,60.51
2022-12-28T07:12:15.795Z,60.73
2022-12-28T07:14:17.202Z,60.70
2022-12-28T07:16:18.567Z,60.42
2022-12-28T07:18:19.923Z,60.38
2022-12-28T07:20:21.216Z,60.45
2022-12-28T07:22:22.551Z,60.22
2022-12-28T07:24:23.889Z,60.56
2022-12-28T07:26:25.200Z,60.34
2022-12-28T07:28:26.552Z,60.23
2022-12-28T07:30:27.979Z,60.77
2022-12-28T07:32:29.403Z,60.53
2022-12-28T07:34:30.725Z,60.78
2022-12-28T07:36:32.081Z,60.86
2022-12-28T07:38:33.413Z,60.92
2022-12-28T07:40:34.732Z,60.90
2022-12-28T07:42:36.027Z,61.32
2022-12-28T07:44:38.377Z,61.38
2022-12-28T07:46:40.346Z,61.27
2022-12-28T07:48:41.707Z,61.16
2022-12-28T07:50:43.023Z,61.41
2022-12-28T07:52:44.360Z,61.04
2022-12-28T07:54:45.659Z,61.14
2022-12-28T07:56:46.950Z,61.28
2022-12-28T08:00:48.517Z,60.60
2022-12-28T08:02:49.825Z,60.92
2022-12-28T08:04:52.408Z,60.20
2022-12-28T08:06:54.047Z,60.13
2022-12-28T08:08:55.351Z,59.95
2022-12-28T08:10:56.674Z,60.12
2022-12-28T08:12:57.972Z,59.95
2022-12-28T08:15:01.215Z,59.50
2022-12-28T08:17:02.611Z,59.84
2022-12-28T08:19:03.928Z,59.50
2022-12-28T08:21:05.263Z,59.18
2022-12-28T08:23:06.609Z,58.21
2022-12-28T08:25:07.899Z,58.53
2022-12-28T08:27:09.198Z,58.25
2022-12-28T08:29:10.532Z,58.18
2022-12-28T08:31:11.916Z,58.45
2022-12-28T08:33:13.277Z,58.35
2022-12-28T08:35:14.742Z,58.69
2022-12-28T08:37:16.077Z,58.30
2022-12-28T08:39:17.374Z,58.36
2022-12-28T08:41:18.725Z,58.40
2022-12-28T08:43:20.050Z,58.94
2022-12-28T08:45:21.363Z,58.69
2022-12-28T08:47:22.695Z,58.62
2022-12-28T08:49:23.998Z,58.83
2022-12-28T08:51:25.333Z,58.76
2022-12-28T08:53:26.645Z,58.38
2022-12-28T08:55:27.981Z,58.50
2022-12-28T08:57:29.323Z,58.59
2022-12-28T08:59:30.677Z,58.35
2022-12-28T09:01:35.866Z,58.31
2022-12-28T09:03:40.646Z,57.98
2022-12-28T09:05:41.958Z,57.80
2022-12-28T09:07:43.322Z,57.81
2022-12-28T09:09:44.690Z,57.73
2022-12-28T09:11:46.023Z,57.64
2022-12-28T09:13:47.342Z,57.27
2022-12-28T09:15:48.723Z,57.26
2022-12-28T09:17:50.031Z,56.80
2022-12-28T09:19:51.362Z,56.77
2022-12-28T09:21:53.311Z,56.68
2022-12-28T09:23:57.745Z,57.08
2022-12-28T09:25:59.092Z,56.51
2022-12-28T09:28:00.428Z,56.90
2022-12-28T09:30:01.754Z,47.16
2022-12-28T09:32:03.109Z,45.07
2022-12-28T09:36:29.094Z,47.29
2022-12-28T09:38:30.418Z,47.38
2022-12-28T09:40:31.718Z,47.34
2022-12-28T09:42:33.056Z,47.53
2022-12-28T09:44:34.457Z,47.87
2022-12-28T09:46:35.779Z,48.44
2022-12-28T09:48:37.148Z,48.53
2022-12-28T09:50:38.471Z,49.80
2022-12-28T09:52:43.586Z,49.69
2022-12-28T09:54:49.218Z,50.70
2022-12-28T09:56:50.520Z,51.27
2022-12-28T09:58:52.151Z,51.99
2022-12-28T10:00:53.480Z,51.85
2022-12-28T10:02:54.815Z,53.11
2022-12-28T10:04:56.121Z,53.01
2022-12-28T10:07:01.813Z,52.55
2022-12-28T10:09:03.215Z,56.03
2022-12-28T10:11:04.504Z,52.55
2022-12-28T10:13:09.348Z,52.93
2022-12-28T10:15:17.845Z,52.53
2022-12-28T10:17:19.150Z,52.71
2022-12-28T10:19:20.496Z,53.41
2022-12-28T10:21:26.808Z,53.27
2022-12-28T10:24:04.606Z,53.53
2022-12-28T10:26:03.691Z,53.36
2022-12-28T10:28:05.030Z,53.19
2022-12-28T10:30:06.341Z,53.78
2022-12-28T10:32:09.394Z,54.16
2022-12-28T10:34:10.703Z,54.10
2022-12-28T10:36:12.039Z,53.85
2022-12-28T10:38:13.388Z,53.86
2022-12-28T10:40:15.506Z,54.10
2022-12-28T10:42:16.840Z,54.34
2022-12-28T10:46:40.069Z,55.02
2022-12-28T10:48:41.380Z,55.58
2022-12-28T10:50:42.769Z,55.93
2022-12-28T10:52:44.131Z,55.88
2022-12-28T10:54:48.970Z,55.93
2022-12-28T10:57:06.892Z,56.01
2022-12-28T10:59:14.240Z,56.16
2022-12-28T11:01:17.827Z,55.60
2022-12-28T11:03:19.456Z,55.90
2022-12-28T11:05:21.001Z,55.44
2022-12-28T11:07:22.302Z,54.98
2022-12-28T11:09:23.633Z,55.03
2022-12-28T11:11:24.972Z,54.64
2022-12-28T11:13:27.370Z,54.48
2022-12-28T11:15:28.708Z,54.10
2022-12-28T11:17:31.380Z,54.05
2022-12-28T11:19:32.736Z,53.97
2022-12-28T11:21:34.034Z,54.10
2022-12-28T11:23:35.602Z,53.99
2022-12-28T11:25:36.932Z,53.90
2022-12-28T11:27:38.235Z,53.80
2022-12-28T11:29:39.530Z,53.33
2022-12-28T11:31:40.916Z,53.42
2022-12-28T11:33:42.289Z,53.65
2022-12-28T11:35:43.671Z,53.60
2022-12-28T11:37:45.002Z,53.24
2022-12-28T11:39:46.439Z,53.57
2022-12-28T11:42:10.424Z,53.23
2022-12-28T11:44:12.194Z,53.58
2022-12-28T11:46:13.508Z,53.45
2022-12-28T11:48:14.854Z,53.69
2022-12-28T11:50:16.151Z,53.28
2022-12-28T11:52:17.638Z,53.73
2022-12-28T11:54:19.038Z,53.28
2022-12-28T11:56:20.339Z,53.35
2022-12-28T11:58:24.632Z,53.69
2022-12-28T12:00:25.946Z,53.70
2022-12-28T12:02:27.364Z,53.68
2022-12-28T12:04:29.442Z,53.78
2022-12-28T12:06:35.393Z,53.77
2022-12-28T12:08:40.304Z,53.78
2022-12-28T12:10:41.865Z,53.86
2022-12-28T12:12:43.254Z,54.21
2022-12-28T12:14:44.599Z,54.29
2022-12-28T12:16:45.972Z,54.37
2022-12-28T12:18:47.425Z,54.28
2022-12-28T12:20:48.806Z,54.16
2022-12-28T12:22:52.001Z,54.31
2022-12-28T12:24:56.553Z,54.25
2022-12-28T12:26:58.741Z,54.04
2022-12-28T12:29:00.394Z,54.23
2022-12-28T12:31:01.905Z,54.29
2022-12-28T12:33:03.232Z,54.53
2022-12-28T12:35:04.911Z,53.97
2022-12-28T12:37:06.238Z,54.06
2022-12-28T12:39:08.624Z,54.28
2022-12-28T12:41:09.969Z,54.30
2022-12-28T12:43:17.186Z,54.24
2022-12-28T12:45:18.491Z,54.62
2022-12-28T12:47:19.793Z,54.41
2022-12-28T12:49:21.092Z,54.76
2022-12-28T12:51:25.182Z,54.83
2022-12-28T12:53:26.480Z,54.75
2022-12-28T12:55:27.795Z,54.86
2022-12-28T12:57:29.087Z,54.71
2022-12-28T12:59:30.386Z,55.17
2022-12-28T13:01:31.828Z,54.91
2022-12-28T13:03:34.242Z,55.48
2022-12-28T13:05:36.293Z,55.02
2022-12-28T13:07:37.582Z,55.14
2022-12-28T13:09:38.887Z,55.27
2022-12-28T13:11:40.171Z,55.38
2022-12-28T13:13:41.512Z,55.98
2022-12-28T13:15:45.982Z,56.05
2022-12-28T13:17:47.296Z,55.75
2022-12-28T13:19:48.598Z,55.88
2022-12-28T13:21:49.957Z,56.11
2022-12-28T13:23:51.848Z,55.91
2022-12-28T13:25:53.324Z,56.32
2022-12-28T13:27:54.743Z,56.09
2022-12-28T13:29:56.114Z,56.85
2022-12-28T13:31:57.447Z,56.43
2022-12-28T13:33:58.884Z,56.42
2022-12-28T13:36:00.191Z,56.67
2022-12-28T13:38:02.869Z,56.73
2022-12-28T13:40:04.175Z,56.77
2022-12-28T13:42:08.529Z,57.03
2022-12-28T13:44:09.891Z,56.62
2022-12-28T13:46:11.313Z,56.99
2022-12-28T13:48:12.683Z,56.66
2022-12-28T13:50:14.402Z,57.26
2022-12-28T13:52:18.781Z,57.36
2022-12-28T13:54:20.192Z,56.75
2022-12-28T13:56:21.490Z,57.37
2022-12-28T13:58:22.781Z,57.75
2022-12-28T14:00:24.160Z,57.29
2022-12-28T14:02:25.577Z,57.73
2022-12-28T14:04:51.638Z,57.58
2022-12-28T14:06:48.354Z,57.78
2022-12-28T14:08:50.642Z,57.81
2022-12-28T14:10:52.010Z,57.37
2022-12-28T14:12:53.312Z,57.23
2022-12-28T14:14:54.662Z,57.36
2022-12-28T14:16:55.959Z,56.93
2022-12-28T14:18:57.251Z,56.95
2022-12-28T14:20:58.580Z,56.63
2022-12-28T14:22:59.908Z,56.52
2022-12-28T14:25:01.216Z,56.47
2022-12-28T14:27:02.551Z,56.90
2022-12-28T14:29:03.923Z,56.13
2022-12-28T14:31:05.349Z,56.36
2022-12-28T14:33:13.144Z,56.05
2022-12-28T14:35:15.845Z,56.46
2022-12-28T14:37:19.068Z,56.31
2022-12-28T14:39:20.385Z,56.35
2022-12-28T14:41:21.760Z,56.62
2022-12-28T14:43:23.100Z,56.51
2022-12-28T14:45:24.442Z,56.27
2022-12-28T14:47:25.782Z,56.77
2022-12-28T14:49:27.139Z,56.24
2022-12-28T14:51:28.579Z,56.75
2022-12-28T14:53:30.051Z,56.91
2022-12-28T14:55:31.357Z,56.86
2022-12-28T14:57:32.705Z,57.08
2022-12-28T14:59:34.714Z,57.58
2022-12-28T15:01:36.170Z,55.35
2022-12-28T15:03:40.243Z,55.66
2022-12-28T15:05:41.690Z,55.27
2022-12-28T15:07:43.007Z,55.87
2022-12-28T15:09:44.317Z,56.04
2022-12-28T15:11:46.112Z,57.10
2022-12-28T15:13:47.535Z,55.34
2022-12-28T15:15:55.179Z,56.37
2022-12-28T15:17:56.527Z,55.32
2022-12-28T15:19:57.865Z,56.11
2022-12-28T15:21:59.188Z,56.42
2022-12-28T15:24:00.538Z,55.92
2022-12-28T15:26:01.879Z,55.51
2022-12-28T15:28:03.200Z,55.32
2022-12-28T15:30:05.943Z,55.77
2022-12-28T15:32:08.179Z,54.86
2022-12-28T15:34:09.474Z,54.77
2022-12-28T15:36:16.696Z,54.94
2022-12-28T15:38:18.870Z,55.54
2022-12-28T15:40:20.242Z,55.41
2022-12-28T15:42:21.546Z,55.49
2022-12-28T15:44:22.923Z,55.44
2022-12-28T15:46:24.340Z,55.74
2022-12-28T15:48:28.720Z,55.19
2022-12-28T15:52:31.342Z,56.87
2022-12-28T15:54:32.646Z,55.13
2022-12-28T15:56:33.937Z,55.07
2022-12-28T15:58:35.287Z,54.89
2022-12-28T16:00:36.634Z,55.42
2022-12-28T16:02:38.395Z,55.38
2022-12-28T16:04:42.724Z,55.29
2022-12-28T16:06:47.100Z,55.03
2022-12-28T16:08:48.393Z,55.14
2022-12-28T16:10:50.479Z,47.49
2022-12-28T16:12:54.635Z,50.85
2022-12-28T16:14:55.975Z,51.97
2022-12-28T16:16:57.347Z,52.21
2022-12-28T16:18:58.727Z,51.37
2022-12-28T16:21:02.978Z,51.68
2022-12-28T16:23:04.402Z,52.08
2022-12-28T16:25:05.700Z,52.67
2022-12-28T16:27:07.049Z,51.87
2022-12-28T16:29:08.355Z,52.29
2022-12-28T16:31:09.675Z,52.73
2022-12-28T16:33:14.513Z,52.81
2022-12-28T16:35:15.855Z,52.93
2022-12-28T16:37:18.414Z,53.03
2022-12-28T16:39:20.975Z,53.27
2022-12-28T16:41:24.983Z,52.67
2022-12-28T16:43:26.284Z,52.87
2022-12-28T16:45:27.593Z,53.29
2022-12-28T16:47:31.777Z,53.46
2022-12-28T16:49:33.155Z,53.14
2022-12-28T16:51:34.495Z,53.08
2022-12-28T16:53:35.790Z,53.08
2022-12-28T16:55:37.095Z,52.69
2022-12-28T16:57:38.527Z,52.32
2022-12-28T16:59:39.858Z,52.31
2022-12-28T17:01:42.311Z,53.00
2022-12-28T17:03:46.722Z,53.27
2022-12-28T17:05:48.055Z,53.70
2022-12-28T17:07:52.316Z,53.47
2022-12-28T17:09:53.654Z,54.14
2022-12-28T17:11:54.989Z,54.24
2022-12-28T17:13:56.285Z,54.21
2022-12-28T17:15:57.623Z,54.03
2022-12-28T17:18:01.937Z,54.04
2022-12-28T17:20:03.257Z,54.05
2022-12-28T17:22:04.610Z,53.99
2022-12-28T17:24:05.931Z,54.12
2022-12-28T17:26:10.137Z,54.81
2022-12-28T17:28:11.436Z,53.40
2022-12-28T17:30:12.778Z,53.44
2022-12-28T17:32:14.781Z,53.78
2022-12-28T17:34:16.154Z,53.92
2022-12-28T17:36:17.465Z,54.21
2022-12-28T17:38:18.771Z,54.62
2022-12-28T17:40:20.121Z,54.95
2022-12-28T17:42:27.656Z,54.56
2022-12-28T17:44:28.967Z,54.88
2022-12-28T17:46:30.547Z,54.19
2022-12-28T17:48:31.963Z,54.01
2022-12-28T17:50:36.194Z,54.17
2022-12-28T17:52:37.525Z,53.79
2022-12-28T17:54:38.832Z,53.58
2022-12-28T17:56:40.123Z,53.90
2022-12-28T17:58:41.473Z,54.09
2022-12-28T18:00:42.774Z,54.62
2022-12-28T18:02:44.512Z,52.91
2022-12-28T18:04:46.030Z,52.27
2022-12-28T18:06:47.335Z,52.76
2022-12-28T18:08:51.538Z,53.48
2022-12-28T18:10:52.873Z,53.65
2022-12-28T18:12:54.643Z,53.70
2022-12-28T18:14:56.607Z,54.07
2022-12-28T18:16:57.973Z,53.94
2022-12-28T18:18:59.843Z,54.11
2022-12-28T18:21:01.430Z,54.70
2022-12-28T18:23:02.751Z,54.55
2022-12-28T18:25:04.218Z,54.46
2022-12-28T18:27:05.572Z,54.12
2022-12-28T18:29:06.977Z,54.34
2022-12-28T18:31:09.252Z,54.75
2022-12-28T18:33:10.582Z,54.93
2022-12-28T18:35:11.936Z,54.88
2022-12-28T18:37:13.271Z,54.56
2022-12-28T18:39:14.655Z,54.67
2022-12-28T18:41:16.031Z,54.67
2022-12-28T18:43:17.329Z,55.06
2022-12-28T18:45:18.696Z,54.88
2022-12-28T18:47:20.043Z,55.36
2022-12-28T18:49:29.197Z,55.43
2022-12-28T18:51:30.497Z,55.40
2022-12-28T18:53:31.823Z,55.23
2022-12-28T18:55:33.117Z,55.23
2022-12-28T18:57:34.424Z,55.06
2022-12-28T18:59:35.723Z,55.02
2022-12-28T19:02:05.755Z,55.32
2022-12-28T19:04:01.332Z,55.44
2022-12-28T19:06:05.694Z,55.33
2022-12-28T19:08:07.000Z,55.21
2022-12-28T19:10:13.066Z,55.20
2022-12-28T19:12:14.659Z,55.23
2022-12-28T19:14:15.957Z,55.16
2022-12-28T19:16:17.379Z,55.91
2022-12-28T19:18:21.578Z,55.96
2022-12-28T19:20:23.578Z,55.78
2022-12-28T19:22:24.871Z,55.06
2022-12-28T19:24:26.257Z,55.04
2022-12-28T19:26:30.423Z,54.59
2022-12-28T19:28:31.725Z,54.86
2022-12-28T19:30:34.281Z,55.22
2022-12-28T19:32:35.591Z,54.86
2022-12-28T19:34:36.900Z,54.91
2022-12-28T19:36:38.252Z,55.25
2022-12-28T19:38:39.584Z,55.26
2022-12-28T19:40:41.007Z,54.81
2022-12-28T19:42:42.349Z,54.77
2022-12-28T19:44:46.800Z,54.96
2022-12-28T19:46:48.554Z,55.06
2022-12-28T19:48:49.948Z,54.87
2022-12-28T19:50:51.313Z,54.96
2022-12-28T19:52:55.424Z,55.28
2022-12-28T19:54:56.719Z,54.91
2022-12-28T19:56:58.019Z,55.11
2022-12-28T19:59:05.607Z,55.25
2022-12-28T20:01:08.224Z,56.46
2022-12-28T20:03:09.877Z,55.27
2022-12-28T20:05:11.297Z,54.66
2022-12-28T20:07:12.619Z,55.10
2022-12-28T20:09:13.991Z,54.79
2022-12-28T20:11:15.299Z,55.27
2022-12-28T20:13:22.401Z,55.03
2022-12-28T20:15:23.710Z,55.21
2022-12-28T20:17:25.011Z,55.26
2022-12-28T20:19:26.357Z,55.17
2022-12-28T20:21:27.892Z,54.90
2022-12-28T20:23:29.222Z,55.29
2022-12-28T20:25:30.552Z,55.82
2022-12-28T20:27:32.273Z,56.03
2022-12-28T20:29:33.644Z,55.61
2022-12-28T20:31:38.052Z,55.80
2022-12-28T20:33:39.578Z,55.50
2022-12-28T20:35:43.555Z,55.33
2022-12-28T20:37:47.680Z,55.64
2022-12-28T20:39:49.019Z,55.64
2022-12-28T20:42:11.512Z,55.43
2022-12-28T20:44:12.921Z,55.61
2022-12-28T20:46:14.246Z,55.02
2022-12-28T20:48:15.575Z,55.82
2022-12-28T20:50:16.876Z,54.88
2022-12-28T20:52:18.316Z,54.54
2022-12-28T20:54:22.700Z,53.59
2022-12-28T20:56:24.047Z,54.18
2022-12-28T20:58:25.339Z,54.98
2022-12-28T21:00:26.691Z,55.42
2022-12-28T21:02:28.069Z,54.63
2022-12-28T21:04:29.386Z,54.74
2022-12-28T21:06:30.756Z,55.17
2022-12-28T21:08:32.091Z,54.93
2022-12-28T21:10:33.454Z,54.79
2022-12-28T21:12:34.811Z,54.97
2022-12-28T21:14:36.094Z,54.71
2022-12-28T21:18:39.017Z,55.09
2022-12-28T21:20:40.329Z,55.53
2022-12-28T21:22:41.633Z,55.38
2022-12-28T21:24:42.970Z,54.73
2022-12-28T21:26:44.416Z,54.99
2022-12-28T21:28:48.625Z,54.94
2022-12-28T21:30:55.670Z,55.45
2022-12-28T21:32:57.371Z,55.11
2022-12-28T21:34:58.702Z,54.87
2022-12-28T21:37:20.061Z,55.07
2022-12-28T21:39:21.396Z,55.46
2022-12-28T21:41:41.845Z,55.82
2022-12-28T21:43:43.553Z,55.60
2022-12-28T21:45:45.085Z,55.50
2022-12-28T21:47:46.643Z,56.17
2022-12-28T21:49:47.995Z,56.59
2022-12-28T21:51:50.313Z,55.69
2022-12-28T21:53:51.951Z,56.38
2022-12-28T21:55:53.304Z,55.50
2022-12-28T21:57:59.614Z,55.59
2022-12-28T22:00:21.212Z,55.34
2022-12-28T22:02:41.306Z,55.80
2022-12-28T22:05:03.324Z,56.10
2022-12-28T22:07:04.949Z,56.42
2022-12-28T22:09:24.865Z,55.88
2022-12-28T22:11:44.842Z,56.40
2022-12-28T22:13:47.023Z,56.25
2022-12-28T22:15:51.535Z,56.23
2022-12-28T22:17:53.558Z,55.97
2022-12-28T22:19:55.251Z,56.25
2022-12-28T22:21:59.580Z,56.05
2022-12-28T22:24:00.876Z,55.95
2022-12-28T22:26:02.198Z,56.25
2022-12-28T22:28:03.543Z,56.47
2022-12-28T22:30:04.854Z,56.36
2022-12-28T22:32:06.218Z,56.30
2022-12-28T22:34:07.735Z,55.95
2022-12-28T22:36:09.084Z,56.03
2022-12-28T22:38:10.396Z,55.59
2022-12-28T22:40:11.782Z,55.85
2022-12-28T22:42:13.121Z,55.60
2022-12-28T22:44:14.554Z,55.39
2022-12-28T22:46:16.019Z,55.74
2022-12-28T22:48:17.418Z,55.82
2022-12-28T22:50:18.773Z,55.91
2022-12-28T22:52:20.092Z,55.44
2022-12-28T22:54:24.341Z,55.21
2022-12-28T22:56:25.771Z,55.68
2022-12-28T22:58:27.106Z,55.40
2022-12-28T23:00:28.421Z,55.07
2022-12-28T23:02:30.356Z,55.74
2022-12-28T23:04:31.837Z,55.56
2022-12-28T23:06:33.154Z,55.90
2022-12-28T23:08:34.518Z,55.83
2022-12-28T23:10:35.865Z,55.50
2022-12-28T23:12:37.164Z,55.59
2022-12-28T23:14:57.051Z,56.05
2022-12-28T23:16:58.421Z,56.15
2022-12-28T23:19:18.510Z,56.10
2022-12-28T23:21:44.595Z,56.25
2022-12-28T23:24:04.665Z,55.96
2022-12-28T23:26:24.595Z,56.21
2022-12-28T23:28:25.914Z,56.52
2022-12-28T23:30:27.270Z,54.90
2022-12-28T23:32:28.639Z,54.85
2022-12-28T23:34:29.983Z,55.41
2022-12-28T23:36:33.529Z,54.78
2022-12-28T23:38:34.889Z,54.83
2022-12-28T23:40:36.466Z,54.34
2022-12-28T23:42:37.820Z,54.81
2022-12-28T23:44:39.153Z,54.74
2022-12-28T23:46:41.543Z,54.91
2022-12-28T23:48:42.903Z,55.14
2022-12-28T23:50:44.210Z,55.36
2022-12-28T23:52:45.545Z,55.37
2022-12-28T23:54:46.941Z,55.52
2022-12-28T23:56:49.098Z,55.33
2022-12-28T23:58:50.423Z,55.45
